Time;durP1;ratioP1;P1;durP2;ratioP2;P2;SDS_P1;SDS_P2;PMS_P1;PMS_P2;Temp;Humidity;BMP_temperature;BMP_pressure;BME280_temperature;BME280_humidity;BME280_pressure;Samples;Min_cycle;Max_cycle;Signal;HPM_P1;HPM_P2
2021/07/08 00:00:23;;;;;;;10.77;4.30;;;;;;;;;;3585716;39;20738;-66
2021/07/08 00:02:48;;;;;;;6.60;4.30;;;;;;;;;;3586791;40;20032;-66
2021/07/08 00:05:13;;;;;;;4.70;4.20;;;;;;;;;;3586432;40;20262;-67
2021/07/08 00:07:38;;;;;;;7.33;4.43;;;;;;;;;;3587083;40;20039;-67
2021/07/08 00:10:04;;;;;;;5.53;4.30;;;;;;;;;;3585332;40;20056;-67
2021/07/08 00:12:29;;;;;;;6.93;4.20;;;;;;;;;;3585780;40;20522;-67
2021/07/08 00:14:54;;;;;;;13.73;5.37;;;;;;;;;;3586954;40;20057;-66
2021/07/08 00:17:19;;;;;;;5.27;4.70;;;;;;;;;;3585211;40;20040;-67
2021/07/08 00:19:44;;;;;;;6.77;4.73;;;;;;;;;;3586437;40;20040;-67
2021/07/08 00:22:09;;;;;;;8.03;4.53;;;;;;;;;;3585483;40;20035;-67
2021/07/08 00:24:35;;;;;;;8.80;4.93;;;;;;;;;;3584380;40;20043;-67
2021/07/08 00:27:00;;;;;;;7.27;5.50;;;;;;;;;;3592246;39;20598;-66
2021/07/08 00:29:25;;;;;;;9.00;5.17;;;;;;;;;;3586499;40;20066;-67
2021/07/08 00:31:50;;;;;;;6.65;5.10;;;;;;;;;;3586135;40;20073;-67
2021/07/08 00:34:15;;;;;;;8.93;4.70;;;;;;;;;;3585912;40;20421;-67
2021/07/08 00:36:41;;;;;;;6.33;4.57;;;;;;;;;;3585566;40;20033;-67
2021/07/08 00:39:06;;;;;;;7.90;5.00;;;;;;;;;;3584652;40;20286;-67
2021/07/08 00:41:31;;;;;;;7.90;6.00;;;;;;;;;;3586259;40;20028;-67
2021/07/08 00:43:56;;;;;;;6.07;5.40;;;;;;;;;;3593396;39;20121;-66
2021/07/08 00:46:21;;;;;;;9.67;5.83;;;;;;;;;;3586693;40;20532;-67
2021/07/08 00:48:47;;;;;;;7.13;5.70;;;;;;;;;;3585098;40;20417;-67
2021/07/08 00:51:12;;;;;;;11.17;5.93;;;;;;;;;;3585116;40;20036;-67
2021/07/08 00:53:37;;;;;;;8.33;5.40;;;;;;;;;;3585944;40;20025;-67
2021/07/08 00:56:02;;;;;;;9.13;5.73;;;;;;;;;;3586834;40;20040;-66
2021/07/08 00:58:27;;;;;;;13.67;5.67;;;;;;;;;;3584812;40;20031;-67
2021/07/08 01:00:53;;;;;;;9.47;5.23;;;;;;;;;;3586191;40;20129;-67
2021/07/08 01:03:18;;;;;;;7.87;5.10;;;;;;;;;;3586994;40;20254;-67
2021/07/08 01:05:43;;;;;;;5.85;5.25;;;;;;;;;;3585737;40;20020;-67
2021/07/08 01:08:09;;;;;;;7.68;4.85;;;;;;;;;;3586597;40;20015;-67
2021/07/08 01:10:34;;;;;;;12.50;4.83;;;;;;;;;;3585959;40;20036;-67
2021/07/08 01:12:59;;;;;;;7.50;4.97;;;;;;;;;;3586775;39;20058;-67
2021/07/08 01:15:24;;;;;;;11.30;5.17;;;;;;;;;;3584701;40;20342;-67
2021/07/08 01:17:50;;;;;;;6.73;4.77;;;;;;;;;;3585198;40;20038;-67
2021/07/08 01:20:17;;;;;;;5.15;4.40;;;;;;;;;;3584921;40;20044;-67
2021/07/08 01:22:42;;;;;;;7.38;4.80;;;;;;;;;;3585859;40;20052;-67
2021/07/08 01:25:08;;;;;;;8.07;4.73;;;;;;;;;;3593368;39;20679;-67
2021/07/08 01:27:33;;;;;;;8.02;5.22;;;;;;;;;;3594068;39;20347;-66
2021/07/08 01:29:58;;;;;;;10.27;5.30;;;;;;;;;;3583988;40;20142;-67
2021/07/08 01:32:23;;;;;;;6.63;5.20;;;;;;;;;;3587032;40;20523;-67
2021/07/08 01:34:49;;;;;;;7.03;4.30;;;;;;;;;;3584573;40;20024;-66
2021/07/08 01:37:16;;;;;;;6.57;5.20;;;;;;;;;;3586553;40;20024;-67
2021/07/08 01:39:41;;;;;;;9.77;4.78;;;;;;;;;;3584897;40;20070;-67
2021/07/08 01:42:06;;;;;;;9.67;4.10;;;;;;;;;;3585707;40;20024;-67
2021/07/08 01:44:32;;;;;;;5.37;4.47;;;;;;;;;;3586430;40;20536;-67
2021/07/08 01:46:57;;;;;;;7.03;4.80;;;;;;;;;;3586015;40;20467;-67
2021/07/08 01:49:24;;;;;;;7.27;5.13;;;;;;;;;;3584026;40;20028;-67
2021/07/08 01:51:50;;;;;;;9.15;5.07;;;;;;;;;;3584927;40;20286;-67
2021/07/08 01:54:15;;;;;;;8.80;4.80;;;;;;;;;;3584817;40;20021;-68
2021/07/08 01:56:40;;;;;;;8.47;4.83;;;;;;;;;;3584609;40;20081;-67
2021/07/08 01:59:06;;;;;;;11.30;5.33;;;;;;;;;;3585135;40;20040;-61
2021/07/08 02:01:31;;;;;;;7.07;5.60;;;;;;;;;;3586534;40;20020;-60
2021/07/08 02:03:56;;;;;;;7.93;5.53;;;;;;;;;;3583678;40;20036;-60
2021/07/08 02:06:21;;;;;;;8.70;5.50;;;;;;;;;;3592857;39;20250;-60
2021/07/08 02:08:47;;;;;;;7.07;5.87;;;;;;;;;;3584633;40;20454;-60
2021/07/08 02:11:12;;;;;;;10.97;5.57;;;;;;;;;;3583527;40;20262;-60
2021/07/08 02:13:37;;;;;;;7.47;5.70;;;;;;;;;;3584717;40;20048;-60
2021/07/08 02:16:02;;;;;;;9.33;5.57;;;;;;;;;;3583110;40;20084;-60
2021/07/08 02:18:27;;;;;;;10.40;5.97;;;;;;;;;;3585500;39;20101;-60
2021/07/08 02:20:53;;;;;;;8.70;5.60;;;;;;;;;;3584600;39;20051;-61
2021/07/08 02:23:18;;;;;;;9.60;5.47;;;;;;;;;;3595260;39;20391;-60
2021/07/08 02:25:43;;;;;;;6.47;5.47;;;;;;;;;;3601579;39;20424;-60
2021/07/08 02:28:08;;;;;;;9.73;5.83;;;;;;;;;;3586541;40;20040;-60
2021/07/08 02:30:34;;;;;;;6.43;5.37;;;;;;;;;;3600670;39;20367;-60
2021/07/08 02:32:59;;;;;;;8.70;5.40;;;;;;;;;;3581988;40;20039;-60
2021/07/08 02:35:24;;;;;;;8.90;5.47;;;;;;;;;;3583531;40;20743;-60
2021/07/08 02:37:49;;;;;;;7.38;5.43;;;;;;;;;;3583601;40;20262;-60
2021/07/08 02:40:15;;;;;;;6.90;5.70;;;;;;;;;;3585343;40;20036;-61
2021/07/08 02:42:40;;;;;;;7.80;5.40;;;;;;;;;;3584670;40;20036;-60
2021/07/08 02:45:05;;;;;;;11.13;6.13;;;;;;;;;;3585436;40;20674;-60
2021/07/08 02:47:30;;;;;;;8.37;5.50;;;;;;;;;;3584530;40;20251;-61
2021/07/08 02:49:55;;;;;;;6.10;5.50;;;;;;;;;;3585101;40;20303;-61
2021/07/08 02:52:21;;;;;;;8.03;5.80;;;;;;;;;;3583330;40;20035;-61
2021/07/08 02:54:46;;;;;;;14.97;5.77;;;;;;;;;;3584286;40;20708;-61
2021/07/08 02:57:11;;;;;;;10.93;5.97;;;;;;;;;;3589216;39;20074;-61
2021/07/08 02:59:36;;;;;;;9.47;6.10;;;;;;;;;;3584189;40;20130;-61
2021/07/08 03:02:01;;;;;;;6.60;5.70;;;;;;;;;;3581909;40;20098;-61
2021/07/08 03:04:27;;;;;;;8.47;5.60;;;;;;;;;;3584582;40;20055;-61
2021/07/08 03:06:52;;;;;;;8.67;5.77;;;;;;;;;;3584126;40;20863;-61
2021/07/08 03:09:17;;;;;;;8.93;5.97;;;;;;;;;;3586387;40;20768;-61
2021/07/08 03:11:42;;;;;;;13.60;6.17;;;;;;;;;;3586736;40;20571;-61
2021/07/08 03:14:07;;;;;;;12.07;6.43;;;;;;;;;;3585704;40;20271;-61
2021/07/08 03:16:33;;;;;;;7.23;5.83;;;;;;;;;;3582863;40;20494;-61
2021/07/08 03:18:58;;;;;;;9.97;5.87;;;;;;;;;;3582563;40;20035;-61
2021/07/08 03:21:23;;;;;;;7.18;5.90;;;;;;;;;;3582547;40;20069;-61
2021/07/08 03:23:48;;;;;;;8.80;6.57;;;;;;;;;;3581869;40;20048;-61
2021/07/08 03:26:13;;;;;;;8.80;7.27;;;;;;;;;;3582265;40;20028;-61
2021/07/08 03:28:39;;;;;;;13.57;7.23;;;;;;;;;;3587155;40;20693;-61
2021/07/08 03:31:04;;;;;;;10.87;7.47;;;;;;;;;;3583598;39;20386;-61
2021/07/08 03:33:29;;;;;;;10.80;7.80;;;;;;;;;;3583569;40;20081;-61
2021/07/08 03:35:54;;;;;;;9.90;7.57;;;;;;;;;;3583970;40;20036;-61
2021/07/08 03:38:19;;;;;;;13.00;6.93;;;;;;;;;;3580265;40;20037;-61
2021/07/08 03:40:45;;;;;;;7.80;6.60;;;;;;;;;;3581763;40;20032;-61
2021/07/08 03:43:10;;;;;;;9.80;6.73;;;;;;;;;;3584934;40;20021;-61
2021/07/08 03:45:35;;;;;;;6.83;5.73;;;;;;;;;;3584209;40;20028;-61
2021/07/08 03:48:00;;;;;;;10.30;7.03;;;;;;;;;;3584000;40;20028;-61
2021/07/08 03:50:26;;;;;;;11.00;6.43;;;;;;;;;;3586449;40;20035;-61
2021/07/08 03:52:51;;;;;;;8.17;6.73;;;;;;;;;;3586839;40;20660;-61
2021/07/08 03:55:16;;;;;;;9.43;6.37;;;;;;;;;;3584184;40;20165;-61
2021/07/08 03:57:52;;;;;;;10.43;6.43;;;;;;;;;;3584016;40;20025;-61
2021/07/08 04:00:17;;;;;;;8.00;6.47;;;;;;;;;;3582774;40;20444;-61
2021/07/08 04:02:43;;;;;;;7.60;6.47;;;;;;;;;;3587729;40;20028;-61
2021/07/08 04:05:08;;;;;;;9.87;6.60;;;;;;;;;;3583532;40;20033;-61
2021/07/08 04:07:33;;;;;;;10.17;6.63;;;;;;;;;;3593472;39;20470;-61
2021/07/08 04:09:58;;;;;;;9.97;5.40;;;;;;;;;;3585336;40;20040;-60
2021/07/08 04:12:23;;;;;;;7.87;6.83;;;;;;;;;;3586558;40;20066;-61
2021/07/08 04:14:49;;;;;;;7.97;6.13;;;;;;;;;;3582059;40;20110;-61
2021/07/08 04:17:14;;;;;;;6.77;5.67;;;;;;;;;;3586097;40;20300;-61
2021/07/08 04:19:39;;;;;;;10.60;5.87;;;;;;;;;;3589189;39;20736;-61
2021/07/08 04:22:04;;;;;;;8.50;5.83;;;;;;;;;;3583695;40;20342;-61
2021/07/08 04:24:29;;;;;;;11.13;6.00;;;;;;;;;;3582321;40;20037;-61
2021/07/08 04:26:54;;;;;;;9.27;5.47;;;;;;;;;;3583533;40;20033;-61
2021/07/08 04:29:20;;;;;;;7.90;5.67;;;;;;;;;;3586546;40;20043;-61
2021/07/08 04:31:45;;;;;;;6.50;5.28;;;;;;;;;;3583115;40;20040;-61
2021/07/08 04:34:10;;;;;;;7.60;5.63;;;;;;;;;;3587188;39;20031;-61
2021/07/08 04:36:35;;;;;;;7.93;5.70;;;;;;;;;;3588449;40;20151;-61
2021/07/08 04:39:01;;;;;;;5.72;5.10;;;;;;;;;;3585073;40;20021;-61
2021/07/08 04:41:26;;;;;;;8.30;4.63;;;;;;;;;;3584374;40;20060;-61
2021/07/08 04:43:51;;;;;;;9.67;5.13;;;;;;;;;;3586250;40;20459;-61
2021/07/08 04:46:16;;;;;;;6.87;4.60;;;;;;;;;;3583874;40;20107;-61
2021/07/08 04:48:41;;;;;;;8.73;4.40;;;;;;;;;;3586482;40;20039;-61
2021/07/08 04:51:07;;;;;;;8.17;4.90;;;;;;;;;;3585544;40;20032;-61
2021/07/08 04:53:32;;;;;;;7.43;4.60;;;;;;;;;;3588922;40;20413;-61
2021/07/08 04:55:57;;;;;;;6.33;4.20;;;;;;;;;;3585415;40;20035;-61
2021/07/08 04:58:22;;;;;;;9.57;4.37;;;;;;;;;;3585862;40;20312;-61
2021/07/08 05:00:47;;;;;;;6.00;3.90;;;;;;;;;;3584226;40;20255;-61
2021/07/08 05:03:13;;;;;;;4.97;3.77;;;;;;;;;;3584367;39;20091;-61
2021/07/08 05:05:38;;;;;;;8.80;4.50;;;;;;;;;;3593662;39;20032;-61
2021/07/08 05:08:03;;;;;;;7.17;3.67;;;;;;;;;;3584196;40;20076;-61
2021/07/08 05:10:28;;;;;;;4.53;3.90;;;;;;;;;;3585899;40;20247;-61
2021/07/08 05:12:53;;;;;;;7.10;4.20;;;;;;;;;;3587026;40;20055;-61
2021/07/08 05:15:19;;;;;;;5.63;3.73;;;;;;;;;;3584846;40;20060;-61
2021/07/08 05:17:44;;;;;;;5.35;4.05;;;;;;;;;;3583663;40;20110;-60
2021/07/08 05:20:09;;;;;;;4.97;3.47;;;;;;;;;;3584817;39;20043;-61
2021/07/08 05:22:35;;;;;;;4.47;3.83;;;;;;;;;;3586977;39;20258;-61
2021/07/08 05:25:00;;;;;;;5.23;3.30;;;;;;;;;;3585113;40;20664;-61
2021/07/08 05:27:25;;;;;;;3.87;3.40;;;;;;;;;;3586922;40;20085;-61
2021/07/08 05:29:50;;;;;;;9.47;3.70;;;;;;;;;;3584378;40;20548;-61
2021/07/08 05:32:16;;;;;;;3.63;3.10;;;;;;;;;;3584278;40;20266;-61
2021/07/08 05:34:41;;;;;;;10.30;3.93;;;;;;;;;;3586246;40;20031;-60
2021/07/08 05:37:06;;;;;;;6.27;3.80;;;;;;;;;;3583774;39;20258;-60
2021/07/08 05:39:31;;;;;;;5.13;3.57;;;;;;;;;;3583588;40;20345;-61
2021/07/08 05:41:56;;;;;;;6.33;3.47;;;;;;;;;;3586378;40;20043;-61
2021/07/08 05:44:21;;;;;;;4.63;3.40;;;;;;;;;;3585089;39;20085;-61
2021/07/08 05:46:47;;;;;;;6.70;3.37;;;;;;;;;;3585837;40;20778;-61
2021/07/08 05:49:12;;;;;;;7.15;3.53;;;;;;;;;;3585818;40;20040;-61
2021/07/08 05:51:37;;;;;;;5.47;3.77;;;;;;;;;;3586081;40;20039;-61
2021/07/08 05:54:02;;;;;;;6.57;3.63;;;;;;;;;;3584106;40;20029;-61
2021/07/08 05:56:28;;;;;;;8.30;4.00;;;;;;;;;;3583586;40;20036;-61
2021/07/08 05:58:53;;;;;;;8.40;3.60;;;;;;;;;;3592822;39;20674;-61
2021/07/08 06:01:18;;;;;;;9.55;3.72;;;;;;;;;;3585475;40;20739;-61
2021/07/08 06:03:43;;;;;;;6.20;3.23;;;;;;;;;;3586202;40;20039;-61
2021/07/08 06:06:08;;;;;;;6.57;3.87;;;;;;;;;;3589416;40;20044;-61
2021/07/08 06:08:34;;;;;;;8.57;3.73;;;;;;;;;;3585376;40;20777;-61
2021/07/08 06:10:59;;;;;;;8.83;3.57;;;;;;;;;;3584836;40;20254;-61
2021/07/08 06:13:24;;;;;;;4.50;3.50;;;;;;;;;;3584109;40;20776;-61
2021/07/08 06:15:49;;;;;;;7.13;3.87;;;;;;;;;;3581691;40;20032;-61
2021/07/08 06:18:14;;;;;;;5.03;3.90;;;;;;;;;;3586256;40;20036;-61
2021/07/08 06:20:40;;;;;;;8.80;3.63;;;;;;;;;;3584717;40;20024;-61
2021/07/08 06:23:05;;;;;;;12.75;4.68;;;;;;;;;;3584925;40;20032;-61
2021/07/08 06:25:30;;;;;;;5.50;3.87;;;;;;;;;;3586008;40;20025;-61
2021/07/08 06:27:56;;;;;;;9.05;3.70;;;;;;;;;;3587145;40;20032;-61
2021/07/08 06:30:21;;;;;;;6.27;3.37;;;;;;;;;;3585018;39;20047;-61
2021/07/08 06:32:46;;;;;;;7.00;3.57;;;;;;;;;;3583389;40;20035;-61
2021/07/08 06:35:13;;;;;;;4.45;3.90;;;;;;;;;;3584543;40;20707;-62
2021/07/08 06:37:38;;;;;;;8.40;3.35;;;;;;;;;;3582343;40;20035;-61
2021/07/08 06:40:03;;;;;;;21.07;11.53;;;;;;;;;;3583295;40;20024;-61
2021/07/08 06:42:28;;;;;;;9.00;4.60;;;;;;;;;;3583908;40;20310;-61
2021/07/08 06:44:53;;;;;;;15.20;5.53;;;;;;;;;;3591253;39;20035;-61
2021/07/08 06:47:20;;;;;;;7.47;4.47;;;;;;;;;;3582661;40;20397;-60
2021/07/08 06:49:45;;;;;;;12.02;4.18;;;;;;;;;;3586108;39;20028;-60
2021/07/08 06:52:10;;;;;;;9.63;4.77;;;;;;;;;;3585568;40;20055;-61
2021/07/08 06:54:36;;;;;;;11.10;5.20;;;;;;;;;;3585793;40;20044;-61
2021/07/08 06:57:01;;;;;;;7.17;4.77;;;;;;;;;;3582000;39;20020;-61
2021/07/08 06:59:26;;;;;;;6.43;4.67;;;;;;;;;;3582998;40;20262;-62
2021/07/08 07:01:51;;;;;;;14.00;5.87;;;;;;;;;;3585449;40;20924;-62
2021/07/08 07:04:16;;;;;;;14.70;6.90;;;;;;;;;;3585494;40;20028;-62
2021/07/08 07:06:42;;;;;;;10.27;5.40;;;;;;;;;;3583160;40;20052;-68
2021/07/08 07:09:07;;;;;;;8.00;4.70;;;;;;;;;;3584716;40;20115;-70
2021/07/08 07:11:32;;;;;;;7.70;5.33;;;;;;;;;;3587722;40;21033;-68
2021/07/08 07:13:57;;;;;;;8.40;5.43;;;;;;;;;;3583887;40;20059;-69
2021/07/08 07:16:23;;;;;;;7.20;4.40;;;;;;;;;;3586140;40;20037;-69
2021/07/08 07:18:49;;;;;;;9.38;5.20;;;;;;;;;;3585784;39;20118;-69
2021/07/08 07:21:14;;;;;;;8.30;4.53;;;;;;;;;;3584622;40;20039;-66
2021/07/08 07:23:42;;;;;;;8.10;4.60;;;;;;;;;;3584255;40;20348;-67
2021/07/08 07:26:07;;;;;;;10.85;4.20;;;;;;;;;;3582942;40;20101;-66
2021/07/08 07:28:32;;;;;;;8.17;4.50;;;;;;;;;;3585814;40;20661;-67
2021/07/08 07:30:57;;;;;;;6.38;4.32;;;;;;;;;;3581973;40;20352;-69
2021/07/08 07:33:23;;;;;;;6.23;4.20;;;;;;;;;;3584365;40;20039;-69
2021/07/08 07:35:48;;;;;;;6.27;4.20;;;;;;;;;;3585985;39;20024;-69
2021/07/08 07:38:13;;;;;;;11.70;7.83;;;;;;;;;;3581976;40;20278;-69
2021/07/08 07:40:38;;;;;;;7.27;4.97;;;;;;;;;;3585511;40;20297;-70
2021/07/08 07:43:03;;;;;;;18.07;8.27;;;;;;;;;;3586156;40;20028;-69
2021/07/08 07:45:29;;;;;;;8.83;4.87;;;;;;;;;;3584922;40;20659;-69
2021/07/08 07:47:54;;;;;;;7.43;3.80;;;;;;;;;;3586428;40;20408;-69
2021/07/08 07:50:19;;;;;;;9.30;6.03;;;;;;;;;;3584641;40;20520;-69
2021/07/08 07:52:45;;;;;;;9.95;5.03;;;;;;;;;;3586541;40;20523;-69
2021/07/08 07:55:10;;;;;;;8.75;4.32;;;;;;;;;;3585971;40;20060;-69
2021/07/08 07:57:35;;;;;;;7.67;3.90;;;;;;;;;;3583151;40;20033;-70
2021/07/08 08:00:00;;;;;;;8.47;3.67;;;;;;;;;;3583920;40;20032;-69
2021/07/08 08:02:26;;;;;;;11.57;6.27;;;;;;;;;;3585270;40;20069;-70
2021/07/08 08:10:12;;;;;;;6.53;3.35;;;;;;;;;;3584589;40;20024;-67
2021/07/08 08:12:37;;;;;;;9.33;3.20;;;;;;;;;;3585503;40;20047;-67
2021/07/08 08:15:03;;;;;;;7.70;3.43;;;;;;;;;;3585056;40;20041;-67
2021/07/08 08:17:28;;;;;;;6.37;3.13;;;;;;;;;;3584584;40;20402;-67
2021/07/08 08:19:53;;;;;;;3.80;3.13;;;;;;;;;;3585936;40;20040;-67
2021/07/08 08:22:20;;;;;;;9.50;3.10;;;;;;;;;;3585679;40;20692;-67
2021/07/08 08:24:45;;;;;;;8.02;2.58;;;;;;;;;;3584986;40;20036;-67
2021/07/08 08:27:10;;;;;;;5.23;2.70;;;;;;;;;;3585277;40;20433;-67
2021/07/08 08:29:36;;;;;;;6.73;2.40;;;;;;;;;;3587165;40;20245;-67
2021/07/08 08:32:01;;;;;;;5.93;2.08;;;;;;;;;;3586560;40;20433;-67
2021/07/08 08:34:26;;;;;;;3.93;2.50;;;;;;;;;;3584921;40;20425;-67
2021/07/08 08:36:52;;;;;;;4.57;2.23;;;;;;;;;;3584846;40;20052;-66
2021/07/08 08:39:17;;;;;;;4.97;2.00;;;;;;;;;;3586896;40;20729;-67
2021/07/08 08:41:42;;;;;;;5.13;2.30;;;;;;;;;;3586250;40;20523;-67
2021/07/08 08:44:07;;;;;;;4.37;2.20;;;;;;;;;;3602726;39;20707;-67
2021/07/08 08:46:33;;;;;;;5.20;2.10;;;;;;;;;;3583977;40;20021;-67
2021/07/08 08:48:58;;;;;;;3.22;1.92;;;;;;;;;;3585774;40;20286;-67
2021/07/08 08:51:25;;;;;;;4.77;2.00;;;;;;;;;;3585474;40;20033;-67
2021/07/08 08:53:50;;;;;;;6.45;2.28;;;;;;;;;;3601690;39;20032;-67
2021/07/08 08:56:15;;;;;;;10.53;2.30;;;;;;;;;;3586704;40;20453;-67
2021/07/08 08:58:40;;;;;;;4.13;2.40;;;;;;;;;;3592523;39;20040;-66
2021/07/08 09:01:07;;;;;;;4.13;2.40;;;;;;;;;;3584842;40;20036;-67
2021/07/08 09:03:33;;;;;;;6.53;2.42;;;;;;;;;;3586843;40;20035;-67
2021/07/08 09:05:58;;;;;;;2.72;2.30;;;;;;;;;;3584860;40;20322;-67
2021/07/08 09:08:24;;;;;;;3.25;2.30;;;;;;;;;;3586760;40;20021;-67
2021/07/08 09:10:50;;;;;;;3.75;2.20;;;;;;;;;;3586107;40;20314;-67
2021/07/08 09:13:15;;;;;;;8.90;2.63;;;;;;;;;;3584666;40;20070;-67
2021/07/08 09:15:40;;;;;;;3.90;2.37;;;;;;;;;;3584429;40;20054;-66
2021/07/08 09:18:05;;;;;;;4.80;2.40;;;;;;;;;;3584192;40;20140;-70
2021/07/08 09:20:30;;;;;;;4.20;2.00;;;;;;;;;;3581745;40;20782;-68
2021/07/08 09:22:56;;;;;;;4.10;2.30;;;;;;;;;;3584100;40;20250;-68
2021/07/08 09:25:22;;;;;;;5.05;2.90;;;;;;;;;;3589848;40;20028;-68
2021/07/08 09:27:47;;;;;;;4.97;2.42;;;;;;;;;;3585611;40;20028;-69
2021/07/08 09:30:12;;;;;;;5.73;2.23;;;;;;;;;;3586367;40;20028;-66
2021/07/08 09:32:37;;;;;;;4.73;2.30;;;;;;;;;;3591437;39;20075;-64
2021/07/08 09:35:05;;;;;;;7.55;2.60;;;;;;;;;;3582175;40;20134;-64
2021/07/08 09:37:30;;;;;;;4.85;3.35;;;;;;;;;;3585229;40;20032;-64
2021/07/08 09:39:55;;;;;;;8.25;5.32;;;;;;;;;;3584318;40;20383;-64
2021/07/08 09:42:20;;;;;;;3.80;2.88;;;;;;;;;;3587189;40;20025;-64
2021/07/08 09:44:46;;;;;;;3.40;2.60;;;;;;;;;;3585558;39;20073;-64
2021/07/08 09:47:11;;;;;;;4.45;2.60;;;;;;;;;;3586330;39;20108;-64
2021/07/08 09:49:36;;;;;;;2.53;2.17;;;;;;;;;;3586467;40;20129;-65
2021/07/08 09:52:01;;;;;;;2.80;2.13;;;;;;;;;;3584604;40;20629;-61
2021/07/08 09:54:27;;;;;;;4.50;2.75;;;;;;;;;;3582688;40;20013;-60
2021/07/08 09:56:56;;;;;;;4.87;3.50;;;;;;;;;;3584896;40;20032;-61
2021/07/08 09:59:22;;;;;;;3.58;2.97;;;;;;;;;;3585419;40;20028;-61
2021/07/08 10:01:47;;;;;;;3.15;1.80;;;;;;;;;;3591248;39;20829;-60
2021/07/08 10:04:12;;;;;;;5.90;2.67;;;;;;;;;;3584857;40;20301;-61
2021/07/08 10:06:38;;;;;;;9.27;5.03;;;;;;;;;;3583022;40;20821;-61
2021/07/08 10:09:03;;;;;;;8.43;3.10;;;;;;;;;;3586109;40;20254;-60
2021/07/08 10:11:28;;;;;;;6.10;3.30;;;;;;;;;;3590907;39;20025;-61
2021/07/08 10:13:54;;;;;;;3.85;2.50;;;;;;;;;;3585487;40;20068;-60
2021/07/08 10:16:19;;;;;;;2.67;2.23;;;;;;;;;;3583201;40;20420;-61
2021/07/08 10:18:44;;;;;;;3.00;2.30;;;;;;;;;;3591411;39;20044;-61
2021/07/08 10:21:09;;;;;;;6.13;2.40;;;;;;;;;;3584951;40;20398;-61
2021/07/08 10:23:35;;;;;;;4.67;2.13;;;;;;;;;;3582958;40;20036;-61
2021/07/08 10:26:00;;;;;;;5.15;2.55;;;;;;;;;;3587568;40;20045;-61
2021/07/08 10:28:26;;;;;;;3.78;2.63;;;;;;;;;;3584857;40;20028;-60
2021/07/08 10:30:52;;;;;;;6.90;4.25;;;;;;;;;;3582120;40;20029;-61
2021/07/08 10:33:17;;;;;;;4.50;3.30;;;;;;;;;;3583544;40;20417;-60
2021/07/08 10:35:42;;;;;;;3.20;2.83;;;;;;;;;;3581916;40;20074;-61
2021/07/08 10:38:07;;;;;;;3.50;2.10;;;;;;;;;;3586016;40;20020;-61
2021/07/08 10:40:33;;;;;;;2.47;2.10;;;;;;;;;;3583271;40;20124;-61
2021/07/08 10:43:00;;;;;;;4.30;2.10;;;;;;;;;;3584887;40;20378;-61
2021/07/08 10:45:25;;;;;;;5.55;2.33;;;;;;;;;;3590770;39;20035;-60
2021/07/08 10:47:50;;;;;;;2.83;2.17;;;;;;;;;;3585488;40;20036;-60
2021/07/08 10:50:15;;;;;;;7.93;2.50;;;;;;;;;;3584241;39;20036;-60
2021/07/08 10:52:40;;;;;;;5.73;2.30;;;;;;;;;;3582200;40;20415;-68
2021/07/08 10:55:06;;;;;;;3.47;2.23;;;;;;;;;;3584848;40;20413;-68
2021/07/08 10:57:31;;;;;;;7.17;2.47;;;;;;;;;;3584594;40;20032;-68
2021/07/08 10:59:56;;;;;;;6.13;2.50;;;;;;;;;;3583759;40;20034;-68
2021/07/08 11:02:21;;;;;;;2.17;1.93;;;;;;;;;;3586922;40;20582;-60
2021/07/08 11:04:47;;;;;;;3.03;2.20;;;;;;;;;;3588043;40;20031;-59
2021/07/08 11:07:12;;;;;;;6.13;2.40;;;;;;;;;;3584457;40;20040;-60
2021/07/08 11:09:38;;;;;;;3.83;2.53;;;;;;;;;;3583760;40;20128;-62
2021/07/08 11:12:03;;;;;;;3.77;2.50;;;;;;;;;;3586098;40;20337;-62
2021/07/08 11:14:28;;;;;;;6.88;2.75;;;;;;;;;;3585814;40;20032;-62
2021/07/08 11:16:54;;;;;;;5.63;2.30;;;;;;;;;;3583731;40;20052;-62
2021/07/08 11:19:19;;;;;;;6.00;2.53;;;;;;;;;;3581920;40;20039;-62
2021/07/08 11:21:44;;;;;;;3.63;2.57;;;;;;;;;;3584176;40;20302;-62
2021/07/08 11:24:09;;;;;;;3.50;2.37;;;;;;;;;;3585211;40;20849;-62
2021/07/08 11:26:34;;;;;;;2.73;2.37;;;;;;;;;;3583090;40;20076;-62
2021/07/08 11:29:00;;;;;;;4.07;2.50;;;;;;;;;;3584276;40;20111;-62
2021/07/08 11:31:25;;;;;;;4.38;2.97;;;;;;;;;;3584173;40;20031;-62
2021/07/08 11:33:50;;;;;;;4.07;2.70;;;;;;;;;;3583282;40;20039;-62
2021/07/08 11:36:23;;;;;;;3.25;2.70;;;;;;;;;;3583820;40;20021;-62
2021/07/08 11:38:48;;;;;;;7.97;3.20;;;;;;;;;;3584630;40;20327;-62
2021/07/08 11:41:14;;;;;;;6.63;4.00;;;;;;;;;;3584298;40;20036;-62
2021/07/08 11:43:39;;;;;;;4.07;2.87;;;;;;;;;;3582348;39;20033;-62
2021/07/08 11:46:04;;;;;;;4.83;3.27;;;;;;;;;;3586316;40;20025;-64
2021/07/08 11:48:29;;;;;;;5.60;3.23;;;;;;;;;;3585012;39;20028;-65
2021/07/08 11:50:55;;;;;;;10.63;4.53;;;;;;;;;;3584911;39;20694;-65
2021/07/08 11:53:20;;;;;;;5.85;3.65;;;;;;;;;;3587658;40;20043;-65
2021/07/08 11:55:45;;;;;;;5.77;3.90;;;;;;;;;;3586850;40;20121;-65
2021/07/08 11:58:10;;;;;;;9.23;3.17;;;;;;;;;;3584695;40;20032;-64
2021/07/08 12:00:35;;;;;;;5.00;3.40;;;;;;;;;;3582529;40;20032;-65
2021/07/08 12:03:01;;;;;;;3.47;2.80;;;;;;;;;;3593026;39;20405;-65
2021/07/08 12:05:26;;;;;;;4.10;3.22;;;;;;;;;;3584198;40;20025;-65
2021/07/08 12:08:06;;;;;;;4.00;3.13;;;;;;;;;;3601228;39;20036;-65
2021/07/08 12:10:31;;;;;;;6.22;4.45;;;;;;;;;;3588599;40;20032;-65
2021/07/08 12:12:57;;;;;;;6.95;4.38;;;;;;;;;;3584180;40;20083;-65
2021/07/08 12:15:22;;;;;;;3.83;3.20;;;;;;;;;;3585261;40;20016;-65
2021/07/08 12:17:48;;;;;;;8.17;3.37;;;;;;;;;;3586454;40;20275;-65
2021/07/08 12:20:13;;;;;;;9.60;3.70;;;;;;;;;;3582894;40;20028;-66
2021/07/08 12:22:38;;;;;;;7.60;4.17;;;;;;;;;;3585536;40;20032;-65
2021/07/08 12:25:03;;;;;;;5.23;3.63;;;;;;;;;;3585247;40;20028;-64
2021/07/08 12:27:28;;;;;;;9.60;4.43;;;;;;;;;;3583757;40;20033;-64
2021/07/08 12:29:54;;;;;;;11.27;5.80;;;;;;;;;;3586089;40;20433;-64
2021/07/08 12:32:21;;;;;;;7.87;5.07;;;;;;;;;;3585215;40;20578;-64
2021/07/08 12:34:50;;;;;;;12.30;6.00;;;;;;;;;;3583284;40;20033;-64
2021/07/08 12:37:19;;;;;;;5.15;3.83;;;;;;;;;;3586142;40;20181;-64
2021/07/08 12:39:45;;;;;;;3.22;2.90;;;;;;;;;;3591550;39;20036;-64
2021/07/08 12:42:10;;;;;;;3.90;3.27;;;;;;;;;;3584679;40;20079;-65
2021/07/08 12:44:35;;;;;;;5.80;3.90;;;;;;;;;;3586195;40;20129;-64
2021/07/08 12:47:00;;;;;;;6.63;4.03;;;;;;;;;;3585406;39;20028;-64
2021/07/08 12:49:25;;;;;;;6.40;4.70;;;;;;;;;;3588297;40;20068;-64
2021/07/08 12:51:50;;;;;;;3.93;3.37;;;;;;;;;;3585530;40;20048;-65
2021/07/08 12:54:16;;;;;;;5.30;3.50;;;;;;;;;;3584999;40;20037;-64
2021/07/08 12:56:41;;;;;;;5.47;3.87;;;;;;;;;;3587536;40;20433;-64
2021/07/08 12:59:06;;;;;;;8.97;5.10;;;;;;;;;;3586977;40;20035;-64
2021/07/08 13:01:31;;;;;;;10.10;5.00;;;;;;;;;;3585630;40;20756;-64
2021/07/08 13:03:57;;;;;;;13.90;6.87;;;;;;;;;;3585843;40;20101;-65
2021/07/08 13:06:22;;;;;;;13.27;6.20;;;;;;;;;;3586476;40;20261;-65
2021/07/08 13:08:47;;;;;;;13.13;6.35;;;;;;;;;;3587523;40;20525;-65
2021/07/08 13:11:13;;;;;;;14.63;6.77;;;;;;;;;;3588765;40;20095;-65
2021/07/08 13:13:38;;;;;;;10.07;5.33;;;;;;;;;;3585734;40;20673;-59
2021/07/08 13:16:03;;;;;;;18.73;7.88;;;;;;;;;;3585961;40;20093;-63
2021/07/08 13:18:29;;;;;;;9.60;6.40;;;;;;;;;;3586827;40;20120;-65
2021/07/08 13:20:54;;;;;;;20.93;11.67;;;;;;;;;;3587054;40;20040;-59
2021/07/08 13:23:19;;;;;;;19.97;7.80;;;;;;;;;;3585335;40;20419;-59
2021/07/08 13:25:44;;;;;;;19.23;8.40;;;;;;;;;;3586616;40;20037;-59
2021/07/08 13:28:09;;;;;;;9.57;6.00;;;;;;;;;;3586691;40;20084;-59
2021/07/08 13:30:35;;;;;;;10.90;6.00;;;;;;;;;;3583923;40;20075;-59
2021/07/08 13:33:00;;;;;;;17.25;6.97;;;;;;;;;;3587331;40;20247;-59
2021/07/08 13:35:26;;;;;;;21.23;7.93;;;;;;;;;;3583370;40;20486;-59
2021/07/08 13:37:51;;;;;;;12.00;6.73;;;;;;;;;;3583847;40;20028;-59
2021/07/08 13:40:16;;;;;;;6.00;4.00;;;;;;;;;;3588349;40;20335;-59
2021/07/08 13:42:41;;;;;;;14.38;6.43;;;;;;;;;;3583394;40;20064;-60
2021/07/08 13:45:06;;;;;;;10.47;5.93;;;;;;;;;;3585215;40;20750;-59
2021/07/08 13:47:32;;;;;;;10.20;5.90;;;;;;;;;;3584674;40;20752;-59
2021/07/08 13:49:57;;;;;;;12.40;6.65;;;;;;;;;;3583045;40;20504;-59
2021/07/08 13:52:24;;;;;;;6.90;4.83;;;;;;;;;;3584179;40;20411;-59
2021/07/08 13:54:49;;;;;;;5.88;4.57;;;;;;;;;;3583064;39;20758;-59
2021/07/08 13:57:15;;;;;;;7.40;4.27;;;;;;;;;;3587457;39;20027;-59
2021/07/08 13:59:44;;;;;;;10.70;4.90;;;;;;;;;;3582373;40;20251;-59
2021/07/08 14:02:10;;;;;;;6.80;4.22;;;;;;;;;;3586570;40;20043;-59
2021/07/08 14:04:35;;;;;;;18.65;9.75;;;;;;;;;;3586684;40;20118;-60
2021/07/08 14:07:00;;;;;;;9.40;4.80;;;;;;;;;;3586221;40;20413;-60
2021/07/08 14:09:26;;;;;;;19.10;6.93;;;;;;;;;;3583142;40;20792;-60
2021/07/08 14:11:51;;;;;;;7.55;4.85;;;;;;;;;;3584938;40;20802;-62
2021/07/08 14:14:16;;;;;;;9.50;5.43;;;;;;;;;;3584875;40;20064;-60
2021/07/08 14:16:42;;;;;;;7.67;4.03;;;;;;;;;;3586320;40;20050;-60
2021/07/08 14:19:07;;;;;;;9.43;5.60;;;;;;;;;;3584805;40;20021;-60
2021/07/08 14:21:32;;;;;;;9.40;4.10;;;;;;;;;;3582588;40;20722;-60
2021/07/08 14:23:57;;;;;;;5.30;3.33;;;;;;;;;;3583368;40;20799;-60
2021/07/08 14:26:22;;;;;;;5.27;3.50;;;;;;;;;;3584591;40;20032;-60
2021/07/08 14:28:48;;;;;;;7.03;3.80;;;;;;;;;;3586237;40;20366;-60
2021/07/08 14:31:13;;;;;;;4.73;3.50;;;;;;;;;;3584859;40;20079;-59
2021/07/08 14:33:38;;;;;;;13.20;3.88;;;;;;;;;;3585206;40;20020;-60